createdAt,value
2019-02-21T00:00:26.771Z,1.93
2019-02-21T00:01:26.738Z,1.93
2019-02-21T00:02:26.710Z,1.91
2019-02-21T00:03:26.738Z,2.01
2019-02-21T00:04:26.660Z,1.97
2019-02-21T00:05:26.645Z,2.06
2019-02-21T00:06:26.617Z,2.12
2019-02-21T00:07:26.583Z,2.22
2019-02-21T00:08:26.578Z,2.17
2019-02-21T00:09:26.535Z,2.08
2019-02-21T00:10:26.509Z,2.04
2019-02-21T00:11:26.483Z,1.97
2019-02-21T00:12:26.468Z,1.80
2019-02-21T00:13:26.437Z,1.75
2019-02-21T00:14:26.413Z,1.60
2019-02-21T00:15:26.391Z,1.47
2019-02-21T00:16:26.362Z,1.52
2019-02-21T00:17:26.336Z,1.60
2019-02-21T00:18:26.313Z,1.60
2019-02-21T00:19:26.288Z,1.68
2019-02-21T00:20:26.269Z,1.71
2019-02-21T00:21:26.239Z,1.69
2019-02-21T00:22:26.214Z,1.58
2019-02-21T00:23:26.196Z,1.46
2019-02-21T00:24:26.168Z,1.58
2019-02-21T00:25:26.139Z,1.57
2019-02-21T00:26:26.115Z,1.55
2019-02-21T00:27:26.089Z,1.62
2019-02-21T00:28:26.064Z,1.55
2019-02-21T00:29:26.041Z,1.57
2019-02-21T00:30:34.815Z,1.60
2019-02-21T00:31:25.993Z,1.58
2019-02-21T00:32:25.971Z,1.55
2019-02-21T00:33:25.943Z,1.57
2019-02-21T00:34:25.914Z,1.62
2019-02-21T00:35:25.889Z,1.57
2019-02-21T00:36:25.873Z,1.58
2019-02-21T00:37:25.847Z,1.58
2019-02-21T00:38:25.827Z,1.58
2019-02-21T00:39:25.802Z,1.52
2019-02-21T00:40:25.771Z,1.50
2019-02-21T00:41:25.748Z,1.40
2019-02-21T00:42:25.716Z,1.46
2019-02-21T00:43:25.697Z,1.46
2019-02-21T00:44:25.684Z,1.52
2019-02-21T00:45:25.642Z,1.58
2019-02-21T00:46:25.620Z,1.55
2019-02-21T00:47:25.597Z,1.58
2019-02-21T00:48:25.566Z,1.57
2019-02-21T00:49:25.541Z,1.46
2019-02-21T00:50:25.521Z,1.50
2019-02-21T00:51:25.492Z,1.52
2019-02-21T00:52:25.467Z,1.54
2019-02-21T00:53:25.442Z,1.34
2019-02-21T00:54:25.429Z,1.36
2019-02-21T00:55:27.764Z,1.33
2019-02-21T00:56:25.368Z,1.29
2019-02-21T00:57:25.343Z,1.34
2019-02-21T00:58:25.321Z,1.37
2019-02-21T00:59:25.305Z,1.32
2019-02-21T01:00:25.275Z,1.29
2019-02-21T01:01:25.251Z,1.28
2019-02-21T01:02:25.220Z,1.32
2019-02-21T01:03:25.209Z,1.33
2019-02-21T01:04:25.175Z,1.26
2019-02-21T01:05:25.148Z,1.19
2019-02-21T01:06:25.119Z,1.15
2019-02-21T01:07:25.101Z,1.15
2019-02-21T01:08:25.069Z,1.10
2019-02-21T01:09:25.050Z,1.08
2019-02-21T01:10:25.027Z,0.92
2019-02-21T01:11:25.002Z,0.92
2019-02-21T01:12:24.970Z,0.90
2019-02-21T01:13:24.950Z,1.04
2019-02-21T01:14:24.918Z,0.97
2019-02-21T01:15:24.895Z,1.03
2019-02-21T01:16:24.869Z,1.15
2019-02-21T01:17:24.850Z,1.06
2019-02-21T01:18:24.828Z,1.00
2019-02-21T01:19:24.802Z,1.12
2019-02-21T01:20:24.770Z,1.28
2019-02-21T01:21:24.751Z,1.32
2019-02-21T01:22:24.719Z,1.28
2019-02-21T01:23:24.696Z,1.28
2019-02-21T01:24:24.676Z,1.22
2019-02-21T01:25:24.649Z,1.22
2019-02-21T01:26:24.630Z,1.06
2019-02-21T01:27:24.605Z,0.98
2019-02-21T01:28:24.579Z,0.88
2019-02-21T01:29:24.544Z,0.90
2019-02-21T01:30:24.522Z,0.89
2019-02-21T01:31:24.501Z,0.72
2019-02-21T01:32:24.476Z,0.82
2019-02-21T01:33:24.451Z,0.75
2019-02-21T01:34:24.422Z,0.86
2019-02-21T01:35:24.489Z,0.92
2019-02-21T01:36:24.370Z,0.92
2019-02-21T01:37:24.347Z,1.00
2019-02-21T01:38:24.316Z,1.00
2019-02-21T01:39:24.302Z,1.01
2019-02-21T01:40:24.292Z,0.98
2019-02-21T01:41:24.254Z,0.94
2019-02-21T01:42:24.222Z,0.83
2019-02-21T01:43:24.200Z,0.85
2019-02-21T01:44:24.171Z,0.72
2019-02-21T01:45:24.151Z,0.79
2019-02-21T01:46:24.117Z,0.78
2019-02-21T01:47:24.103Z,0.71
2019-02-21T01:48:24.068Z,0.76
2019-02-21T01:49:24.047Z,0.79
2019-02-21T01:50:24.021Z,0.80
2019-02-21T01:51:23.994Z,0.72
2019-02-21T01:52:23.975Z,0.71
2019-02-21T01:53:23.949Z,0.85
2019-02-21T01:54:23.924Z,0.79
2019-02-21T01:55:23.898Z,0.88
2019-02-21T01:56:23.876Z,0.92
2019-02-21T01:57:23.846Z,0.92
2019-02-21T01:58:23.825Z,0.89
2019-02-21T01:59:23.796Z,1.03
2019-02-21T02:00:23.770Z,0.97
2019-02-21T02:01:23.742Z,1.07
2019-02-21T02:02:23.719Z,0.97
2019-02-21T02:03:23.692Z,0.92
2019-02-21T02:04:23.666Z,0.89
2019-02-21T02:05:23.648Z,0.83
2019-02-21T02:06:23.616Z,0.85
2019-02-21T02:07:23.607Z,0.88
2019-02-21T02:08:23.569Z,0.83
2019-02-21T02:09:23.545Z,0.88
2019-02-21T02:10:23.517Z,0.79
2019-02-21T02:11:23.499Z,0.88
2019-02-21T02:12:23.467Z,0.86
2019-02-21T02:13:24.808Z,0.96
2019-02-21T02:14:23.423Z,0.92
2019-02-21T02:15:23.390Z,0.98
2019-02-21T02:16:23.365Z,1.01
2019-02-21T02:17:23.345Z,1.06
2019-02-21T02:18:23.323Z,1.21
2019-02-21T02:19:23.293Z,1.21
2019-02-21T02:20:23.282Z,1.29
2019-02-21T02:21:23.240Z,1.19
2019-02-21T02:22:23.218Z,1.04
2019-02-21T02:23:23.192Z,0.89
2019-02-21T02:24:23.171Z,0.90
2019-02-21T02:25:23.157Z,0.96
2019-02-21T02:26:23.115Z,0.97
2019-02-21T02:27:23.093Z,1.03
2019-02-21T02:28:23.065Z,0.97
2019-02-21T02:29:23.043Z,1.16
2019-02-21T02:30:23.015Z,1.15
2019-02-21T02:31:23.803Z,1.19
2019-02-21T02:32:22.975Z,1.14
2019-02-21T02:33:22.947Z,1.12
2019-02-21T02:34:22.920Z,1.01
2019-02-21T02:35:22.903Z,0.98
2019-02-21T02:36:22.912Z,0.90
2019-02-21T02:37:22.848Z,1.00
2019-02-21T02:38:22.820Z,0.96
2019-02-21T02:39:22.794Z,0.97
2019-02-21T02:40:22.764Z,0.96
2019-02-21T02:41:22.742Z,0.85
2019-02-21T02:42:22.714Z,0.75
2019-02-21T02:43:22.699Z,0.79
2019-02-21T02:44:22.663Z,0.70
2019-02-21T02:45:22.644Z,0.68
2019-02-21T02:46:22.619Z,0.76
2019-02-21T02:47:22.596Z,0.75
2019-02-21T02:48:22.568Z,0.88
2019-02-21T02:49:22.538Z,0.88
2019-02-21T02:50:22.659Z,0.96
2019-02-21T02:51:22.495Z,0.94
2019-02-21T02:52:22.463Z,0.90
2019-02-21T02:53:22.440Z,0.90
2019-02-21T02:54:22.419Z,0.89
2019-02-21T02:55:22.393Z,0.82
2019-02-21T02:56:22.361Z,0.83
2019-02-21T02:57:22.335Z,0.83
2019-02-21T02:58:22.314Z,0.72
2019-02-21T02:59:22.298Z,0.78
2019-02-21T03:00:22.263Z,0.68
2019-02-21T03:01:34.034Z,0.71
2019-02-21T03:02:22.225Z,0.75
2019-02-21T03:03:22.189Z,0.68
2019-02-21T03:04:22.176Z,0.78
2019-02-21T03:05:22.139Z,0.86
2019-02-21T03:06:22.119Z,1.00
2019-02-21T03:07:24.237Z,1.16
2019-02-21T03:08:22.061Z,1.29
2019-02-21T03:09:22.042Z,1.29
2019-02-21T03:10:22.019Z,1.33
2019-02-21T03:11:22.000Z,1.32
2019-02-21T03:12:21.969Z,1.32
2019-02-21T03:13:21.945Z,1.44
2019-02-21T03:14:21.915Z,1.42
2019-02-21T03:15:21.886Z,1.57
2019-02-21T03:16:21.867Z,1.61
2019-02-21T03:17:21.838Z,1.71
2019-02-21T03:18:21.819Z,1.73
2019-02-21T03:19:21.796Z,1.78
2019-02-21T03:20:21.761Z,1.89
2019-02-21T03:21:21.736Z,1.97
2019-02-21T03:22:21.724Z,1.94
2019-02-21T03:23:21.687Z,1.99
2019-02-21T03:24:21.674Z,1.98
2019-02-21T03:25:21.642Z,2.04
2019-02-21T03:26:21.621Z,2.02
2019-02-21T03:27:21.589Z,1.91
2019-02-21T03:28:21.572Z,2.06
2019-02-21T03:29:21.544Z,2.12
2019-02-21T03:30:21.533Z,1.99
2019-02-21T03:31:21.497Z,2.12
2019-02-21T03:32:21.464Z,2.04
2019-02-21T03:33:21.456Z,2.06
2019-02-21T03:34:21.432Z,1.99
2019-02-21T03:35:21.391Z,1.98
2019-02-21T03:36:21.395Z,2.10
2019-02-21T03:37:21.345Z,2.01
2019-02-21T03:38:21.424Z,2.10
2019-02-21T03:39:21.303Z,2.17
2019-02-21T03:40:21.268Z,2.20
2019-02-21T03:41:21.249Z,2.30
2019-02-21T03:42:21.222Z,2.27
2019-02-21T03:43:21.196Z,2.33
2019-02-21T03:44:21.171Z,2.27
2019-02-21T03:45:21.149Z,2.37
2019-02-21T03:46:21.121Z,2.37
2019-02-21T03:47:21.108Z,2.30
2019-02-21T03:48:21.071Z,2.37
2019-02-21T03:49:21.065Z,2.37
2019-02-21T03:50:21.023Z,2.37
2019-02-21T03:51:21.010Z,2.44
2019-02-21T03:52:20.977Z,2.48
2019-02-21T03:53:20.955Z,2.46
2019-02-21T03:54:20.925Z,2.46
2019-02-21T03:55:20.901Z,2.58
2019-02-21T03:56:20.879Z,2.52
2019-02-21T03:57:20.851Z,2.53
2019-02-21T03:58:20.828Z,2.59
2019-02-21T03:59:20.811Z,2.63
2019-02-21T04:00:20.788Z,2.61
2019-02-21T04:01:20.762Z,2.58
2019-02-21T04:02:20.736Z,2.59
2019-02-21T04:03:20.721Z,2.71
2019-02-21T04:04:20.691Z,2.70
2019-02-21T04:05:20.658Z,2.76
2019-02-21T04:06:20.641Z,2.70
2019-02-21T04:07:21.859Z,2.74
2019-02-21T04:08:20.591Z,2.84
2019-02-21T04:09:20.579Z,2.87
2019-02-21T04:10:20.541Z,2.92
2019-02-21T04:11:20.513Z,2.98
2019-02-21T04:12:20.493Z,3.06
2019-02-21T04:13:20.465Z,3.06
2019-02-21T04:14:21.119Z,3.06
2019-02-21T04:15:20.423Z,3.21
2019-02-21T04:16:20.397Z,3.25
2019-02-21T04:17:20.370Z,3.36
2019-02-21T04:18:20.353Z,3.31
2019-02-21T04:19:20.318Z,3.39
2019-02-21T04:20:20.308Z,3.34
2019-02-21T04:21:20.276Z,3.31
2019-02-21T04:22:20.254Z,3.47
2019-02-21T04:23:20.229Z,3.42
2019-02-21T04:24:20.203Z,3.47
2019-02-21T04:25:20.175Z,3.60
2019-02-21T04:26:20.165Z,3.62
2019-02-21T04:27:20.132Z,3.60
2019-02-21T04:28:20.103Z,3.47
2019-02-21T04:29:20.105Z,3.58
2019-02-21T04:30:20.057Z,3.53
2019-02-21T04:31:20.077Z,3.65
2019-02-21T04:32:20.012Z,3.70
2019-02-21T04:33:19.981Z,3.70
2019-02-21T04:34:19.961Z,3.70
2019-02-21T04:35:19.932Z,3.65
2019-02-21T04:36:19.912Z,3.79
2019-02-21T04:37:19.892Z,3.60
2019-02-21T04:38:19.877Z,3.71
2019-02-21T04:39:19.837Z,3.67
2019-02-21T04:40:19.836Z,3.79
2019-02-21T04:41:19.796Z,3.71
2019-02-21T04:42:19.767Z,3.71
2019-02-21T04:43:19.743Z,3.67
2019-02-21T04:44:19.735Z,3.72
2019-02-21T04:45:19.701Z,3.72
2019-02-21T04:46:19.679Z,3.86
2019-02-21T04:47:19.665Z,3.80
2019-02-21T04:48:19.625Z,3.82
2019-02-21T04:49:19.607Z,3.76
2019-02-21T04:50:19.581Z,3.68
2019-02-21T04:51:19.563Z,3.65
2019-02-21T04:52:19.538Z,3.65
2019-02-21T04:53:19.510Z,3.61
2019-02-21T04:54:19.481Z,3.43
2019-02-21T04:55:19.457Z,3.28
2019-02-21T04:56:19.443Z,3.25
2019-02-21T04:57:19.438Z,3.10
2019-02-21T04:58:19.387Z,3.00
2019-02-21T04:59:19.368Z,2.98
2019-02-21T05:00:19.366Z,2.79
2019-02-21T05:01:19.311Z,2.85
2019-02-21T05:02:28.491Z,2.88
2019-02-21T05:03:19.266Z,2.82
2019-02-21T05:04:19.249Z,2.94
2019-02-21T05:05:19.221Z,2.92
2019-02-21T05:06:19.193Z,2.89
2019-02-21T05:07:19.188Z,2.92
2019-02-21T05:08:19.145Z,2.95
2019-02-21T05:09:19.132Z,2.97
2019-02-21T05:10:19.099Z,2.87
2019-02-21T05:11:19.070Z,2.88
2019-02-21T05:12:19.044Z,2.74
2019-02-21T05:13:19.019Z,2.81
2019-02-21T05:14:19.003Z,2.76
2019-02-21T05:15:18.981Z,2.84
2019-02-21T05:16:18.949Z,2.84
2019-02-21T05:17:18.925Z,2.87
2019-02-21T05:18:18.900Z,2.79
2019-02-21T05:19:18.884Z,2.88
2019-02-21T05:20:18.859Z,2.74
2019-02-21T05:21:18.826Z,2.81
2019-02-21T05:22:18.809Z,2.77
2019-02-21T05:23:18.785Z,2.88
2019-02-21T05:24:18.754Z,2.87
2019-02-21T05:25:18.735Z,2.89
2019-02-21T05:26:18.710Z,2.85
2019-02-21T05:27:18.684Z,2.79
2019-02-21T05:28:18.662Z,2.76
2019-02-21T05:29:18.636Z,2.87
2019-02-21T05:30:18.605Z,2.81
2019-02-21T05:31:18.588Z,2.77
2019-02-21T05:32:18.557Z,2.71
2019-02-21T05:33:18.537Z,2.85
2019-02-21T05:34:18.509Z,2.84
2019-02-21T05:35:18.569Z,2.76
2019-02-21T05:36:18.463Z,2.73
2019-02-21T05:37:18.434Z,2.58
2019-02-21T05:38:18.410Z,2.46
2019-02-21T05:39:18.391Z,2.37
2019-02-21T05:40:18.362Z,2.31
2019-02-21T05:41:18.344Z,2.28
2019-02-21T05:42:18.317Z,2.19
2019-02-21T05:43:18.291Z,2.06
2019-02-21T05:44:18.272Z,2.01
2019-02-21T05:45:18.272Z,2.02
2019-02-21T05:46:18.244Z,1.91
2019-02-21T05:47:18.205Z,1.83
2019-02-21T05:48:18.177Z,1.87
2019-02-21T05:49:18.148Z,1.89
2019-02-21T05:50:18.128Z,1.94
2019-02-21T05:51:18.097Z,1.94
2019-02-21T05:52:18.078Z,1.89
2019-02-21T05:53:18.046Z,1.91
2019-02-21T05:54:18.015Z,1.94
2019-02-21T05:55:17.995Z,1.90
2019-02-21T05:56:17.972Z,2.08
2019-02-21T05:57:17.966Z,2.13
2019-02-21T05:58:17.928Z,2.10
2019-02-21T05:59:17.909Z,2.19
2019-02-21T06:00:17.867Z,2.19
2019-02-21T06:01:17.862Z,2.19
2019-02-21T06:02:17.818Z,2.37
2019-02-21T06:03:17.801Z,2.26
2019-02-21T06:04:19.437Z,2.30
2019-02-21T06:05:19.333Z,2.30
2019-02-21T06:06:17.759Z,2.38
2019-02-21T06:07:17.697Z,2.31
2019-02-21T06:08:17.670Z,2.27
2019-02-21T06:09:17.652Z,2.37
2019-02-21T06:10:17.639Z,2.34
2019-02-21T06:11:18.384Z,2.23
2019-02-21T06:12:17.576Z,2.23
2019-02-21T06:13:17.550Z,2.22
2019-02-21T06:14:17.525Z,2.15
2019-02-21T06:15:18.319Z,2.27
2019-02-21T06:16:17.470Z,2.16
2019-02-21T06:17:17.451Z,2.09
2019-02-21T06:18:17.873Z,1.93
2019-02-21T06:19:17.400Z,1.93
2019-02-21T06:20:18.020Z,2.09
2019-02-21T06:21:17.349Z,2.09
2019-02-21T06:22:17.338Z,2.10
2019-02-21T06:23:17.307Z,2.08
2019-02-21T06:24:17.285Z,2.06
2019-02-21T06:25:17.255Z,2.09
2019-02-21T06:26:17.229Z,2.02
2019-02-21T06:27:17.204Z,2.09
2019-02-21T06:28:17.189Z,1.98
2019-02-21T06:29:17.182Z,1.99
2019-02-21T06:30:17.134Z,1.91
2019-02-21T06:31:17.103Z,2.08
2019-02-21T06:32:17.091Z,2.04
2019-02-21T06:33:17.053Z,2.06
2019-02-21T06:34:17.027Z,2.09
2019-02-21T06:35:17.026Z,2.10
2019-02-21T06:36:17.011Z,2.08
2019-02-21T06:37:16.956Z,2.19
2019-02-21T06:38:16.931Z,2.19
2019-02-21T06:39:16.908Z,2.22
2019-02-21T06:40:16.883Z,2.35
2019-02-21T06:41:16.858Z,2.31
2019-02-21T06:42:16.831Z,2.46
2019-02-21T06:43:16.806Z,2.49
2019-02-21T06:44:16.791Z,2.53
2019-02-21T06:45:18.167Z,2.53
2019-02-21T06:46:16.726Z,2.52
2019-02-21T06:47:16.710Z,2.66
2019-02-21T06:48:16.678Z,2.67
2019-02-21T06:49:16.655Z,2.67
2019-02-21T06:50:26.143Z,2.67
2019-02-21T06:51:16.623Z,2.70
2019-02-21T06:52:16.593Z,2.73
2019-02-21T06:53:16.553Z,2.87
2019-02-21T06:54:16.537Z,2.79
2019-02-21T06:55:16.513Z,2.79
2019-02-21T06:56:16.485Z,2.85
2019-02-21T06:57:16.472Z,2.84
2019-02-21T06:58:16.462Z,2.91
2019-02-21T06:59:16.419Z,2.95
2019-02-21T07:00:16.386Z,3.02
2019-02-21T07:01:26.415Z,3.09
2019-02-21T07:02:16.331Z,3.10
2019-02-21T07:03:16.400Z,3.25
2019-02-21T07:04:16.300Z,3.24
2019-02-21T07:05:16.266Z,3.25
2019-02-21T07:06:16.243Z,3.31
2019-02-21T07:07:16.218Z,3.34
2019-02-21T07:08:16.201Z,3.34
2019-02-21T07:09:16.167Z,3.43
2019-02-21T07:10:16.151Z,3.44
2019-02-21T07:11:16.154Z,3.43
2019-02-21T07:12:16.097Z,3.61
2019-02-21T07:13:26.037Z,3.57
2019-02-21T07:14:16.055Z,3.58
2019-02-21T07:15:16.030Z,3.64
2019-02-21T07:16:16.005Z,3.65
2019-02-21T07:17:15.982Z,3.70
2019-02-21T07:18:15.969Z,3.76
2019-02-21T07:19:15.949Z,3.83
2019-02-21T07:20:15.912Z,3.72
2019-02-21T07:21:15.877Z,3.80
2019-02-21T07:22:17.981Z,3.85
2019-02-21T07:23:15.831Z,3.79
2019-02-21T07:24:18.047Z,3.83
2019-02-21T07:25:15.784Z,3.88
2019-02-21T07:26:15.757Z,3.92
2019-02-21T07:27:15.748Z,3.90
2019-02-21T07:28:16.295Z,3.92
2019-02-21T07:29:15.688Z,4.03
2019-02-21T07:30:20.227Z,4.06
2019-02-21T07:31:28.135Z,4.07
2019-02-21T07:32:15.618Z,4.08
2019-02-21T07:33:27.304Z,4.25
2019-02-21T07:34:15.577Z,4.32
2019-02-21T07:35:15.563Z,4.33
2019-02-21T07:36:15.554Z,4.50
2019-02-21T07:37:18.456Z,4.54
2019-02-21T07:38:17.172Z,4.65
2019-02-21T07:39:18.566Z,4.65
2019-02-21T07:40:20.143Z,4.65
2019-02-21T07:41:18.456Z,4.76
2019-02-21T07:42:15.378Z,4.79
2019-02-21T07:43:15.364Z,4.92
2019-02-21T07:44:15.347Z,4.95
2019-02-21T07:45:15.413Z,5.19
2019-02-21T07:46:15.284Z,5.20
2019-02-21T07:47:15.279Z,5.34
2019-02-21T07:48:15.245Z,5.34
2019-02-21T07:49:15.223Z,5.45
2019-02-21T07:50:15.192Z,5.53
2019-02-21T07:51:15.172Z,5.50
2019-02-21T07:52:15.152Z,5.64
2019-02-21T07:53:15.129Z,5.68
2019-02-21T07:54:15.112Z,5.70
2019-02-21T07:55:15.078Z,5.88
2019-02-21T07:56:15.072Z,5.86
2019-02-21T07:57:15.033Z,6.00
2019-02-21T07:58:15.010Z,5.98
2019-02-21T07:59:15.010Z,6.07
2019-02-21T08:00:14.980Z,6.09
2019-02-21T08:01:17.336Z,6.13
2019-02-21T08:02:14.921Z,6.21
2019-02-21T08:03:14.898Z,6.32
2019-02-21T08:04:14.872Z,6.33
2019-02-21T08:05:14.872Z,6.36
2019-02-21T08:06:14.830Z,6.43
2019-02-21T08:07:14.805Z,6.43
2019-02-21T08:08:14.786Z,6.50
2019-02-21T08:09:14.764Z,6.58
2019-02-21T08:10:14.747Z,6.69
2019-02-21T08:11:14.718Z,6.72
2019-02-21T08:12:14.701Z,6.77
2019-02-21T08:13:14.666Z,6.84
2019-02-21T08:14:16.231Z,6.94
2019-02-21T08:15:14.649Z,6.95
2019-02-21T08:16:14.622Z,7.17
2019-02-21T08:17:16.323Z,7.24
2019-02-21T08:18:14.567Z,7.35
2019-02-21T08:19:14.547Z,7.55
2019-02-21T08:20:14.519Z,7.72
2019-02-21T08:21:14.493Z,7.89
2019-02-21T08:22:14.490Z,8.00
2019-02-21T08:23:14.445Z,8.21
2019-02-21T08:24:14.425Z,8.39
2019-02-21T08:25:14.409Z,8.51
2019-02-21T08:26:14.387Z,8.58
2019-02-21T08:27:14.363Z,8.79
2019-02-21T08:28:14.349Z,8.88
2019-02-21T08:29:14.328Z,9.09
2019-02-21T08:30:14.294Z,9.13
2019-02-21T08:31:14.275Z,9.25
2019-02-21T08:32:14.259Z,9.30
2019-02-21T08:33:14.265Z,9.39
2019-02-21T08:34:14.214Z,9.49
2019-02-21T08:35:14.189Z,9.60
2019-02-21T08:36:14.176Z,9.64
2019-02-21T08:37:14.160Z,9.86
2019-02-21T08:38:14.125Z,9.88
2019-02-21T08:39:14.105Z,9.99
2019-02-21T08:40:14.121Z,9.99
2019-02-21T08:41:14.740Z,9.96
2019-02-21T08:42:14.050Z,10.07
2019-02-21T08:43:14.028Z,10.12
2019-02-21T08:44:14.010Z,10.17
2019-02-21T08:45:13.996Z,10.22
2019-02-21T08:46:14.000Z,10.14
2019-02-21T08:47:13.945Z,10.17
2019-02-21T08:48:13.930Z,10.19
2019-02-21T08:49:13.938Z,10.21
2019-02-21T08:50:13.893Z,10.25
2019-02-21T08:51:13.873Z,10.25
2019-02-21T08:52:13.851Z,10.25
2019-02-21T08:53:13.854Z,10.30
2019-02-21T08:54:13.809Z,10.24
2019-02-21T08:55:13.787Z,10.26
2019-02-21T08:56:13.775Z,10.32
2019-02-21T08:57:13.786Z,10.44
2019-02-21T08:58:13.725Z,10.55
2019-02-21T08:59:13.706Z,10.53
2019-02-21T09:00:13.698Z,10.56
2019-02-21T09:01:13.681Z,10.70
2019-02-21T09:02:13.660Z,10.66
2019-02-21T09:03:13.653Z,10.73
2019-02-21T09:04:26.756Z,10.71
2019-02-21T09:05:13.594Z,10.80
2019-02-21T09:06:13.584Z,10.77
2019-02-21T09:07:13.556Z,10.86
2019-02-21T09:08:13.552Z,10.92
2019-02-21T09:09:13.521Z,11.01
2019-02-21T09:10:13.505Z,10.86
2019-02-21T09:11:13.484Z,11.01
2019-02-21T09:12:13.503Z,10.84
2019-02-21T09:13:13.445Z,10.73
2019-02-21T09:14:13.431Z,10.70
2019-02-21T09:15:13.409Z,10.78
2019-02-21T09:16:13.387Z,10.81
2019-02-21T09:17:13.364Z,10.78
2019-02-21T09:18:13.352Z,10.86
2019-02-21T09:19:13.354Z,11.01
2019-02-21T09:20:13.332Z,11.14
2019-02-21T09:21:13.307Z,11.06
2019-02-21T09:22:13.812Z,11.19
2019-02-21T09:23:15.746Z,11.14
2019-02-21T09:24:15.254Z,11.19
2019-02-21T09:25:13.215Z,11.21
2019-02-21T09:26:13.227Z,11.28
2019-02-21T09:27:13.183Z,11.25
2019-02-21T09:28:15.642Z,11.19
2019-02-21T09:29:13.164Z,11.29
2019-02-21T09:30:13.132Z,11.19
2019-02-21T09:31:13.115Z,11.11
2019-02-21T09:32:13.110Z,11.20
2019-02-21T09:33:17.510Z,11.29
2019-02-21T09:34:20.917Z,11.25
2019-02-21T09:35:13.043Z,11.28
2019-02-21T09:36:13.035Z,11.27
2019-02-21T09:37:13.007Z,11.31
2019-02-21T09:38:13.001Z,11.32
2019-02-21T09:39:12.963Z,11.39
2019-02-21T09:40:12.950Z,11.39
2019-02-21T09:41:12.952Z,11.38
2019-02-21T09:42:12.908Z,11.44
2019-02-21T09:43:12.916Z,11.56
2019-02-21T09:44:12.878Z,11.57
2019-02-21T09:45:14.839Z,11.54
2019-02-21T09:46:12.841Z,11.65
2019-02-21T09:47:12.824Z,11.62
2019-02-21T09:48:12.811Z,11.54
2019-02-21T09:49:12.802Z,11.65
2019-02-21T09:50:12.783Z,11.56
2019-02-21T09:51:12.752Z,11.64
2019-02-21T09:52:12.757Z,11.67
2019-02-21T09:53:12.734Z,11.72
2019-02-21T09:54:12.719Z,11.72
2019-02-21T09:55:12.704Z,11.85
2019-02-21T09:56:12.668Z,11.89
2019-02-21T09:57:13.668Z,11.93
2019-02-21T09:58:12.646Z,11.85
2019-02-21T09:59:12.617Z,11.93
2019-02-21T10:00:12.598Z,11.93
2019-02-21T10:01:12.574Z,12.02
2019-02-21T10:02:12.559Z,12.02
2019-02-21T10:03:12.565Z,11.99
2019-02-21T10:04:12.521Z,11.94
2019-02-21T10:05:12.508Z,11.87
2019-02-21T10:06:12.486Z,11.67
2019-02-21T10:07:12.492Z,11.65
2019-02-21T10:08:12.459Z,11.47
2019-02-21T10:09:12.441Z,11.39
2019-02-21T10:10:12.422Z,11.47
2019-02-21T10:11:12.403Z,11.44
2019-02-21T10:12:12.384Z,11.31
2019-02-21T10:13:13.313Z,11.36
2019-02-21T10:14:12.341Z,11.21
2019-02-21T10:15:12.342Z,11.11
2019-02-21T10:16:12.305Z,11.10
2019-02-21T10:17:12.297Z,11.06
2019-02-21T10:18:12.273Z,11.19
2019-02-21T10:19:12.261Z,10.91
2019-02-21T10:20:12.241Z,10.99
2019-02-21T10:21:12.225Z,10.96
2019-02-21T10:22:12.204Z,11.11
2019-02-21T10:23:12.186Z,11.03
2019-02-21T10:24:12.167Z,11.17
2019-02-21T10:25:12.148Z,11.24
2019-02-21T10:26:12.134Z,11.29
2019-02-21T10:27:12.116Z,11.24
2019-02-21T10:28:12.166Z,11.19
2019-02-21T10:29:12.084Z,11.34
2019-02-21T10:30:13.446Z,11.35
2019-02-21T10:31:12.036Z,11.54
2019-02-21T10:32:12.023Z,11.56
2019-02-21T10:33:11.994Z,11.57
2019-02-21T10:34:12.866Z,11.65
2019-02-21T10:35:11.970Z,11.57
2019-02-21T10:36:11.943Z,11.78
2019-02-21T10:37:11.953Z,11.90
2019-02-21T10:38:11.905Z,12.04
2019-02-21T10:39:11.891Z,11.97
2019-02-21T10:40:11.870Z,11.99
2019-02-21T10:41:11.858Z,12.04
2019-02-21T10:42:11.834Z,12.06
2019-02-21T10:43:11.850Z,12.12
2019-02-21T10:44:11.805Z,12.09
2019-02-21T10:45:11.789Z,12.09
2019-02-21T10:46:11.779Z,12.04
2019-02-21T10:47:11.748Z,12.16
2019-02-21T10:48:11.735Z,12.16
2019-02-21T10:49:11.713Z,12.31
2019-02-21T10:50:13.965Z,12.27
2019-02-21T10:51:11.683Z,12.29
2019-02-21T10:52:11.670Z,12.30
2019-02-21T10:53:11.641Z,12.26
2019-02-21T10:54:11.632Z,12.13
2019-02-21T10:55:11.620Z,12.05
2019-02-21T10:56:11.593Z,12.02
2019-02-21T10:57:11.581Z,11.85
2019-02-21T10:58:11.561Z,11.82
2019-02-21T10:59:11.546Z,11.68
2019-02-21T11:00:11.527Z,11.70
2019-02-21T11:01:11.512Z,11.57
2019-02-21T11:02:11.489Z,11.47
2019-02-21T11:03:11.480Z,11.34
2019-02-21T11:04:11.454Z,11.32
2019-02-21T11:05:11.445Z,11.20
2019-02-21T11:06:11.457Z,11.27
2019-02-21T11:07:11.406Z,11.27
2019-02-21T11:08:11.409Z,11.29
2019-02-21T11:09:11.371Z,11.24
2019-02-21T11:10:11.355Z,11.25
2019-02-21T11:11:11.331Z,11.27
2019-02-21T11:12:11.316Z,11.31
2019-02-21T11:13:11.295Z,11.25
2019-02-21T11:14:11.275Z,11.21
2019-02-21T11:15:11.256Z,11.20
2019-02-21T11:16:11.253Z,11.16
2019-02-21T11:17:11.221Z,11.13
2019-02-21T11:18:11.230Z,11.11
2019-02-21T11:19:11.179Z,11.20
2019-02-21T11:20:11.163Z,11.11
2019-02-21T11:21:11.158Z,11.14
2019-02-21T11:22:11.132Z,11.11
2019-02-21T11:23:11.138Z,11.24
2019-02-21T11:24:11.119Z,11.25
2019-02-21T11:25:11.084Z,11.17
2019-02-21T11:26:11.056Z,11.14
2019-02-21T11:27:11.039Z,11.25
2019-02-21T11:28:11.014Z,11.21
2019-02-21T11:29:10.993Z,11.28
2019-02-21T11:30:10.981Z,11.36
2019-02-21T11:31:10.960Z,11.32
2019-02-21T11:32:10.940Z,11.34
2019-02-21T11:33:10.930Z,11.32
2019-02-21T11:34:10.899Z,11.35
2019-02-21T11:35:10.885Z,11.28
2019-02-21T11:36:10.860Z,11.38
2019-02-21T11:37:10.857Z,11.41
2019-02-21T11:38:10.832Z,11.39
2019-02-21T11:39:10.816Z,11.47
2019-02-21T11:40:10.791Z,11.44
2019-02-21T11:41:10.771Z,11.61
2019-02-21T11:42:10.757Z,11.62
2019-02-21T11:43:10.755Z,11.70
2019-02-21T11:44:10.721Z,11.94
2019-02-21T11:45:10.698Z,11.82
2019-02-21T11:46:10.686Z,11.99
2019-02-21T11:47:10.656Z,11.99
2019-02-21T11:48:10.641Z,12.11
2019-02-21T11:49:10.645Z,12.21
2019-02-21T11:50:10.599Z,12.26
2019-02-21T11:51:10.587Z,12.29
2019-02-21T11:52:10.632Z,12.49
2019-02-21T11:53:10.567Z,12.46
2019-02-21T11:54:10.558Z,12.66
2019-02-21T11:55:10.519Z,12.63
2019-02-21T11:56:10.498Z,12.57
2019-02-21T11:57:10.505Z,12.54
2019-02-21T11:58:10.469Z,12.44
2019-02-21T11:59:10.447Z,12.39
2019-02-21T12:00:10.435Z,12.44
2019-02-21T12:01:10.416Z,12.42
2019-02-21T12:02:10.399Z,12.44
2019-02-21T12:03:10.383Z,12.46
2019-02-21T12:04:10.371Z,12.27
2019-02-21T12:05:17.607Z,12.44
2019-02-21T12:06:10.329Z,12.38
2019-02-21T12:07:10.305Z,12.29
2019-02-21T12:08:10.292Z,12.38
2019-02-21T12:09:10.272Z,12.39
2019-02-21T12:10:10.276Z,12.70
2019-02-21T12:11:10.259Z,12.84
2019-02-21T12:12:10.541Z,12.84
2019-02-21T12:13:10.210Z,12.85
2019-02-21T12:14:10.212Z,12.82
2019-02-21T12:15:10.171Z,12.95
2019-02-21T12:16:10.154Z,12.99
2019-02-21T12:17:10.138Z,12.82
2019-02-21T12:18:10.115Z,12.79
2019-02-21T12:19:10.108Z,12.67
2019-02-21T12:20:10.083Z,12.48
2019-02-21T12:21:10.083Z,12.42
2019-02-21T12:22:10.060Z,12.26
2019-02-21T12:23:10.035Z,12.21
2019-02-21T12:24:10.025Z,12.12
2019-02-21T12:25:10.000Z,11.96
2019-02-21T12:26:10.010Z,11.87
2019-02-21T12:27:09.971Z,11.89
2019-02-21T12:28:09.950Z,11.89
2019-02-21T12:29:09.939Z,11.89
2019-02-21T12:30:09.932Z,11.93
2019-02-21T12:31:09.903Z,11.85
2019-02-21T12:32:09.884Z,11.99
2019-02-21T12:33:09.861Z,12.02
2019-02-21T12:34:09.866Z,12.23
2019-02-21T12:35:09.822Z,12.30
2019-02-21T12:36:09.826Z,12.29
2019-02-21T12:37:09.790Z,12.44
2019-02-21T12:38:09.771Z,12.54
2019-02-21T12:39:09.762Z,12.81
2019-02-21T12:40:09.737Z,12.93
2019-02-21T12:41:09.721Z,13.06
2019-02-21T12:42:09.705Z,13.24
2019-02-21T12:43:09.690Z,13.36
2019-02-21T12:44:09.678Z,13.40
2019-02-21T12:45:09.659Z,13.37
2019-02-21T12:46:09.633Z,13.27
2019-02-21T12:47:09.624Z,13.25
2019-02-21T12:48:09.598Z,13.37
2019-02-21T12:49:10.750Z,13.17
2019-02-21T12:50:09.566Z,13.04
2019-02-21T12:51:09.550Z,13.09
2019-02-21T12:52:09.535Z,13.03
2019-02-21T12:53:09.525Z,13.11
2019-02-21T12:54:09.522Z,13.22
2019-02-21T12:55:09.502Z,13.15
2019-02-21T12:56:09.476Z,13.30
2019-02-21T12:57:09.453Z,13.52
2019-02-21T12:58:09.439Z,13.80
2019-02-21T12:59:09.422Z,13.91
2019-02-21T13:00:09.409Z,14.02
2019-02-21T13:01:09.402Z,14.25
2019-02-21T13:02:09.374Z,14.46
2019-02-21T13:03:09.358Z,14.38
2019-02-21T13:04:09.355Z,14.49
2019-02-21T13:05:09.333Z,14.44
2019-02-21T13:06:09.330Z,14.39
2019-02-21T13:07:09.309Z,14.12
2019-02-21T13:08:09.284Z,13.96
2019-02-21T13:09:09.266Z,13.76